sensor_id;sensor_type;location;lat;lon;timestamp;P1;durP1;ratioP1;P2;durP2;ratioP2
73841;SDS011;62184;52.006;5.924;2022-07-12T00:01:38;5.65;;;3.72;;
73841;SDS011;62184;52.006;5.924;2022-07-12T00:04:04;6.33;;;3.63;;
73841;SDS011;62184;52.006;5.924;2022-07-12T00:06:31;5.07;;;3.80;;
73841;SDS011;62184;52.006;5.924;2022-07-12T00:08:57;6.78;;;4.30;;
73841;SDS011;62184;52.006;5.924;2022-07-12T00:11:24;6.53;;;4.03;;
73841;SDS011;62184;52.006;5.924;2022-07-12T00:13:50;6.95;;;4.35;;
73841;SDS011;62184;52.006;5.924;2022-07-12T00:16:19;6.40;;;4.43;;
73841;SDS011;62184;52.006;5.924;2022-07-12T00:18:46;7.07;;;4.95;;
73841;SDS011;62184;52.006;5.924;2022-07-12T00:21:12;6.93;;;4.70;;
73841;SDS011;62184;52.006;5.924;2022-07-12T00:23:38;6.28;;;4.53;;
73841;SDS011;62184;52.006;5.924;2022-07-12T00:26:05;6.10;;;4.00;;
73841;SDS011;62184;52.006;5.924;2022-07-12T00:28:31;7.03;;;4.45;;
73841;SDS011;62184;52.006;5.924;2022-07-12T00:30:58;7.03;;;4.20;;
73841;SDS011;62184;52.006;5.924;2022-07-12T00:33:28;6.60;;;4.00;;
73841;SDS011;62184;52.006;5.924;2022-07-12T00:35:54;7.30;;;4.33;;
73841;SDS011;62184;52.006;5.924;2022-07-12T00:38:21;6.47;;;4.32;;
73841;SDS011;62184;52.006;5.924;2022-07-12T00:40:48;7.45;;;3.92;;
73841;SDS011;62184;52.006;5.924;2022-07-12T00:43:14;5.87;;;4.10;;
73841;SDS011;62184;52.006;5.924;2022-07-12T00:45:41;6.80;;;4.85;;
73841;SDS011;62184;52.006;5.924;2022-07-12T00:48:07;5.53;;;4.13;;
73841;SDS011;62184;52.006;5.924;2022-07-12T00:50:37;6.32;;;4.05;;
73841;SDS011;62184;52.006;5.924;2022-07-12T00:53:04;7.33;;;4.20;;
73841;SDS011;62184;52.006;5.924;2022-07-12T00:55:31;7.43;;;4.77;;
73841;SDS011;62184;52.006;5.924;2022-07-12T00:57:57;6.00;;;4.37;;
73841;SDS011;62184;52.006;5.924;2022-07-12T01:00:25;6.13;;;4.10;;
73841;SDS011;62184;52.006;5.924;2022-07-12T01:02:54;8.75;;;4.72;;
73841;SDS011;62184;52.006;5.924;2022-07-12T01:05:23;8.00;;;5.10;;
73841;SDS011;62184;52.006;5.924;2022-07-12T01:07:55;6.15;;;4.32;;
73841;SDS011;62184;52.006;5.924;2022-07-12T01:10:22;6.40;;;3.87;;
73841;SDS011;62184;52.006;5.924;2022-07-12T01:12:49;7.75;;;5.03;;
73841;SDS011;62184;52.006;5.924;2022-07-12T01:15:16;6.80;;;5.20;;
73841;SDS011;62184;52.006;5.924;2022-07-12T01:17:45;6.75;;;4.90;;
73841;SDS011;62184;52.006;5.924;2022-07-12T01:20:12;7.22;;;4.65;;
73841;SDS011;62184;52.006;5.924;2022-07-12T01:22:39;8.87;;;5.83;;
73841;SDS011;62184;52.006;5.924;2022-07-12T01:25:16;8.23;;;5.75;;
73841;SDS011;62184;52.006;5.924;2022-07-12T01:27:42;7.50;;;5.53;;
73841;SDS011;62184;52.006;5.924;2022-07-12T01:30:09;7.37;;;5.27;;
73841;SDS011;62184;52.006;5.924;2022-07-12T01:32:37;7.85;;;4.72;;
73841;SDS011;62184;52.006;5.924;2022-07-12T01:35:05;7.77;;;4.73;;
73841;SDS011;62184;52.006;5.924;2022-07-12T01:37:33;7.95;;;5.43;;
73841;SDS011;62184;52.006;5.924;2022-07-12T01:40:06;8.40;;;5.28;;
73841;SDS011;62184;52.006;5.924;2022-07-12T01:42:35;6.77;;;4.40;;
73841;SDS011;62184;52.006;5.924;2022-07-12T01:45:03;9.65;;;5.30;;
73841;SDS011;62184;52.006;5.924;2022-07-12T01:47:33;8.20;;;5.83;;
73841;SDS011;62184;52.006;5.924;2022-07-12T01:50:01;9.10;;;5.10;;
73841;SDS011;62184;52.006;5.924;2022-07-12T01:52:31;9.10;;;5.55;;
73841;SDS011;62184;52.006;5.924;2022-07-12T01:54:58;8.03;;;5.43;;
73841;SDS011;62184;52.006;5.924;2022-07-12T01:57:28;7.85;;;5.95;;
73841;SDS011;62184;52.006;5.924;2022-07-12T01:59:55;8.00;;;5.15;;
73841;SDS011;62184;52.006;5.924;2022-07-12T02:02:22;8.10;;;5.33;;
73841;SDS011;62184;52.006;5.924;2022-07-12T02:04:51;8.63;;;6.55;;
73841;SDS011;62184;52.006;5.924;2022-07-12T02:07:18;8.30;;;5.70;;
73841;SDS011;62184;52.006;5.924;2022-07-12T02:09:45;10.60;;;6.57;;
73841;SDS011;62184;52.006;5.924;2022-07-12T02:12:11;9.17;;;6.20;;
73841;SDS011;62184;52.006;5.924;2022-07-12T02:14:40;9.63;;;5.67;;
73841;SDS011;62184;52.006;5.924;2022-07-12T02:17:07;11.43;;;5.83;;
73841;SDS011;62184;52.006;5.924;2022-07-12T02:19:33;8.33;;;6.40;;
73841;SDS011;62184;52.006;5.924;2022-07-12T02:22:00;10.25;;;6.50;;
73841;SDS011;62184;52.006;5.924;2022-07-12T02:24:26;10.60;;;6.43;;
73841;SDS011;62184;52.006;5.924;2022-07-12T02:26:53;11.48;;;7.30;;
73841;SDS011;62184;52.006;5.924;2022-07-12T02:29:20;9.68;;;6.55;;
73841;SDS011;62184;52.006;5.924;2022-07-12T02:31:49;8.90;;;6.23;;
73841;SDS011;62184;52.006;5.924;2022-07-12T02:34:16;10.15;;;6.13;;
73841;SDS011;62184;52.006;5.924;2022-07-12T02:36:42;9.90;;;7.27;;
73841;SDS011;62184;52.006;5.924;2022-07-12T02:39:09;10.65;;;7.07;;
73841;SDS011;62184;52.006;5.924;2022-07-12T02:41:35;11.90;;;7.60;;
73841;SDS011;62184;52.006;5.924;2022-07-12T02:44:01;13.73;;;7.67;;
73841;SDS011;62184;52.006;5.924;2022-07-12T02:46:28;15.98;;;9.43;;
73841;SDS011;62184;52.006;5.924;2022-07-12T02:48:57;11.53;;;7.57;;
73841;SDS011;62184;52.006;5.924;2022-07-12T02:51:24;15.10;;;8.10;;
73841;SDS011;62184;52.006;5.924;2022-07-12T02:53:50;10.87;;;6.60;;
73841;SDS011;62184;52.006;5.924;2022-07-12T02:56:17;11.35;;;7.10;;
73841;SDS011;62184;52.006;5.924;2022-07-12T02:58:43;11.67;;;7.70;;
73841;SDS011;62184;52.006;5.924;2022-07-12T03:01:10;11.03;;;6.97;;
73841;SDS011;62184;52.006;5.924;2022-07-12T03:03:36;9.00;;;6.78;;
73841;SDS011;62184;52.006;5.924;2022-07-12T03:06:05;10.20;;;7.27;;
73841;SDS011;62184;52.006;5.924;2022-07-12T03:08:32;11.75;;;7.80;;
73841;SDS011;62184;52.006;5.924;2022-07-12T03:10:58;11.33;;;7.70;;
73841;SDS011;62184;52.006;5.924;2022-07-12T03:13:25;11.57;;;7.50;;
73841;SDS011;62184;52.006;5.924;2022-07-12T03:15:51;11.00;;;7.47;;
73841;SDS011;62184;52.006;5.924;2022-07-12T03:18:18;10.97;;;7.73;;
73841;SDS011;62184;52.006;5.924;2022-07-12T03:20:44;10.97;;;7.97;;
73841;SDS011;62184;52.006;5.924;2022-07-12T03:23:13;11.10;;;7.72;;
73841;SDS011;62184;52.006;5.924;2022-07-12T03:25:40;11.27;;;7.47;;
73841;SDS011;62184;52.006;5.924;2022-07-12T03:28:06;13.40;;;8.57;;
73841;SDS011;62184;52.006;5.924;2022-07-12T03:30:33;12.57;;;8.40;;
73841;SDS011;62184;52.006;5.924;2022-07-12T03:32:59;11.73;;;7.83;;
73841;SDS011;62184;52.006;5.924;2022-07-12T03:35:26;14.47;;;8.77;;
73841;SDS011;62184;52.006;5.924;2022-07-12T03:37:52;11.30;;;8.00;;
73841;SDS011;62184;52.006;5.924;2022-07-12T03:40:21;10.80;;;7.53;;
73841;SDS011;62184;52.006;5.924;2022-07-12T03:42:48;11.20;;;7.87;;
73841;SDS011;62184;52.006;5.924;2022-07-12T03:45:15;11.90;;;8.45;;
73841;SDS011;62184;52.006;5.924;2022-07-12T03:47:42;11.87;;;8.50;;
73841;SDS011;62184;52.006;5.924;2022-07-12T03:50:09;11.97;;;8.80;;
73841;SDS011;62184;52.006;5.924;2022-07-12T03:52:38;11.50;;;8.37;;
73841;SDS011;62184;52.006;5.924;2022-07-12T03:55:07;10.90;;;7.68;;
73841;SDS011;62184;52.006;5.924;2022-07-12T03:57:37;11.33;;;7.20;;
73841;SDS011;62184;52.006;5.924;2022-07-12T04:00:05;11.93;;;8.27;;
73841;SDS011;62184;52.006;5.924;2022-07-12T04:02:34;12.30;;;7.83;;
73841;SDS011;62184;52.006;5.924;2022-07-12T04:05:01;10.98;;;8.45;;
73841;SDS011;62184;52.006;5.924;2022-07-12T04:07:28;10.43;;;8.37;;
73841;SDS011;62184;52.006;5.924;2022-07-12T04:09:54;9.50;;;7.38;;
73841;SDS011;62184;52.006;5.924;2022-07-12T04:12:20;10.57;;;7.90;;
73841;SDS011;62184;52.006;5.924;2022-07-12T04:14:50;11.10;;;7.93;;
73841;SDS011;62184;52.006;5.924;2022-07-12T04:17:16;11.73;;;8.20;;
73841;SDS011;62184;52.006;5.924;2022-07-12T04:19:42;10.77;;;8.23;;
73841;SDS011;62184;52.006;5.924;2022-07-12T04:22:09;10.50;;;8.63;;
73841;SDS011;62184;52.006;5.924;2022-07-12T04:24:35;10.48;;;8.57;;
73841;SDS011;62184;52.006;5.924;2022-07-12T04:27:02;10.63;;;8.17;;
73841;SDS011;62184;52.006;5.924;2022-07-12T04:29:29;10.47;;;8.13;;
73841;SDS011;62184;52.006;5.924;2022-07-12T04:31:58;12.03;;;9.20;;
73841;SDS011;62184;52.006;5.924;2022-07-12T04:34:25;11.63;;;9.13;;
73841;SDS011;62184;52.006;5.924;2022-07-12T04:36:51;10.83;;;8.20;;
73841;SDS011;62184;52.006;5.924;2022-07-12T04:39:17;11.40;;;8.40;;
73841;SDS011;62184;52.006;5.924;2022-07-12T04:41:44;10.77;;;7.90;;
73841;SDS011;62184;52.006;5.924;2022-07-12T04:44:10;11.63;;;8.50;;
73841;SDS011;62184;52.006;5.924;2022-07-12T04:46:37;11.23;;;8.70;;
73841;SDS011;62184;52.006;5.924;2022-07-12T04:49:06;12.40;;;9.02;;
73841;SDS011;62184;52.006;5.924;2022-07-12T04:51:32;12.73;;;9.93;;
73841;SDS011;62184;52.006;5.924;2022-07-12T04:53:59;14.13;;;10.02;;
73841;SDS011;62184;52.006;5.924;2022-07-12T04:56:25;13.53;;;9.67;;
73841;SDS011;62184;52.006;5.924;2022-07-12T04:58:51;16.13;;;11.70;;
73841;SDS011;62184;52.006;5.924;2022-07-12T05:01:18;15.00;;;11.13;;
73841;SDS011;62184;52.006;5.924;2022-07-12T05:03:44;14.52;;;10.63;;
73841;SDS011;62184;52.006;5.924;2022-07-12T05:06:13;14.30;;;11.07;;
73841;SDS011;62184;52.006;5.924;2022-07-12T05:08:40;16.50;;;11.65;;
73841;SDS011;62184;52.006;5.924;2022-07-12T05:11:06;15.93;;;11.27;;
73841;SDS011;62184;52.006;5.924;2022-07-12T05:13:32;16.13;;;11.30;;
73841;SDS011;62184;52.006;5.924;2022-07-12T05:15:59;16.75;;;12.02;;
73841;SDS011;62184;52.006;5.924;2022-07-12T05:18:25;17.83;;;12.37;;
73841;SDS011;62184;52.006;5.924;2022-07-12T05:20:52;15.57;;;11.43;;
73841;SDS011;62184;52.006;5.924;2022-07-12T05:23:21;16.77;;;12.13;;
73841;SDS011;62184;52.006;5.924;2022-07-12T05:25:47;15.93;;;11.63;;
73841;SDS011;62184;52.006;5.924;2022-07-12T05:28:14;16.40;;;12.13;;
73841;SDS011;62184;52.006;5.924;2022-07-12T05:30:41;15.00;;;11.83;;
73841;SDS011;62184;52.006;5.924;2022-07-12T05:33:08;18.73;;;13.90;;
73841;SDS011;62184;52.006;5.924;2022-07-12T05:35:35;17.73;;;12.07;;
73841;SDS011;62184;52.006;5.924;2022-07-12T05:38:01;28.98;;;20.25;;
73841;SDS011;62184;52.006;5.924;2022-07-12T05:40:30;26.13;;;18.93;;
73841;SDS011;62184;52.006;5.924;2022-07-12T05:42:57;28.83;;;20.03;;
73841;SDS011;62184;52.006;5.924;2022-07-12T05:45:23;24.47;;;19.13;;
73841;SDS011;62184;52.006;5.924;2022-07-12T05:47:50;22.43;;;16.20;;
73841;SDS011;62184;52.006;5.924;2022-07-12T05:50:17;20.48;;;15.35;;
73841;SDS011;62184;52.006;5.924;2022-07-12T05:52:43;21.50;;;15.40;;
73841;SDS011;62184;52.006;5.924;2022-07-12T05:55:09;20.23;;;14.93;;
73841;SDS011;62184;52.006;5.924;2022-07-12T05:57:39;20.87;;;14.83;;
73841;SDS011;62184;52.006;5.924;2022-07-12T06:00:06;27.67;;;18.97;;
73841;SDS011;62184;52.006;5.924;2022-07-12T06:02:34;23.88;;;17.17;;
73841;SDS011;62184;52.006;5.924;2022-07-12T06:05:00;23.40;;;15.60;;
73841;SDS011;62184;52.006;5.924;2022-07-12T06:07:27;20.20;;;14.40;;
73841;SDS011;62184;52.006;5.924;2022-07-12T06:09:53;18.60;;;12.80;;
73841;SDS011;62184;52.006;5.924;2022-07-12T06:12:20;18.52;;;12.38;;
73841;SDS011;62184;52.006;5.924;2022-07-12T06:14:49;15.70;;;12.50;;
73841;SDS011;62184;52.006;5.924;2022-07-12T06:17:15;14.10;;;10.57;;
73841;SDS011;62184;52.006;5.924;2022-07-12T06:19:41;13.70;;;10.77;;
73841;SDS011;62184;52.006;5.924;2022-07-12T06:22:08;12.50;;;9.40;;
73841;SDS011;62184;52.006;5.924;2022-07-12T06:24:34;13.20;;;10.73;;
73841;SDS011;62184;52.006;5.924;2022-07-12T06:27:00;13.37;;;10.70;;
73841;SDS011;62184;52.006;5.924;2022-07-12T06:29:27;12.35;;;9.80;;
73841;SDS011;62184;52.006;5.924;2022-07-12T06:31:56;11.40;;;9.07;;
73841;SDS011;62184;52.006;5.924;2022-07-12T06:34:22;14.55;;;10.07;;
73841;SDS011;62184;52.006;5.924;2022-07-12T06:36:49;10.90;;;8.73;;
73841;SDS011;62184;52.006;5.924;2022-07-12T06:39:15;11.52;;;9.35;;
73841;SDS011;62184;52.006;5.924;2022-07-12T06:41:41;11.00;;;8.93;;
73841;SDS011;62184;52.006;5.924;2022-07-12T06:44:08;12.07;;;9.90;;
73841;SDS011;62184;52.006;5.924;2022-07-12T06:46:34;13.93;;;8.97;;
73841;SDS011;62184;52.006;5.924;2022-07-12T06:49:03;12.20;;;9.70;;
73841;SDS011;62184;52.006;5.924;2022-07-12T06:51:30;13.17;;;8.87;;
73841;SDS011;62184;52.006;5.924;2022-07-12T06:53:56;11.75;;;9.32;;
73841;SDS011;62184;52.006;5.924;2022-07-12T06:56:22;12.27;;;9.67;;
73841;SDS011;62184;52.006;5.924;2022-07-12T06:58:49;13.27;;;9.57;;
73841;SDS011;62184;52.006;5.924;2022-07-12T07:01:15;11.93;;;9.70;;
73841;SDS011;62184;52.006;5.924;2022-07-12T07:03:42;11.70;;;9.73;;
73841;SDS011;62184;52.006;5.924;2022-07-12T07:06:11;12.57;;;9.55;;
73841;SDS011;62184;52.006;5.924;2022-07-12T07:08:37;10.50;;;8.73;;
73841;SDS011;62184;52.006;5.924;2022-07-12T07:11:04;11.07;;;8.80;;
73841;SDS011;62184;52.006;5.924;2022-07-12T07:13:31;11.53;;;8.87;;
73841;SDS011;62184;52.006;5.924;2022-07-12T07:15:57;9.17;;;7.77;;
73841;SDS011;62184;52.006;5.924;2022-07-12T07:18:24;10.27;;;7.90;;
73841;SDS011;62184;52.006;5.924;2022-07-12T07:20:50;9.80;;;8.00;;
73841;SDS011;62184;52.006;5.924;2022-07-12T07:23:19;9.70;;;8.47;;
73841;SDS011;62184;52.006;5.924;2022-07-12T07:25:45;13.02;;;8.07;;
73841;SDS011;62184;52.006;5.924;2022-07-12T07:28:12;9.27;;;6.83;;
73841;SDS011;62184;52.006;5.924;2022-07-12T07:30:38;9.07;;;6.47;;
73841;SDS011;62184;52.006;5.924;2022-07-12T07:33:05;7.68;;;6.68;;
73841;SDS011;62184;52.006;5.924;2022-07-12T07:35:31;9.10;;;7.40;;
73841;SDS011;62184;52.006;5.924;2022-07-12T07:37:58;8.32;;;7.43;;
73841;SDS011;62184;52.006;5.924;2022-07-12T07:40:27;9.50;;;7.50;;
73841;SDS011;62184;52.006;5.924;2022-07-12T07:42:53;8.17;;;7.00;;
73841;SDS011;62184;52.006;5.924;2022-07-12T07:45:20;10.38;;;7.07;;
73841;SDS011;62184;52.006;5.924;2022-07-12T07:47:46;8.23;;;7.23;;
73841;SDS011;62184;52.006;5.924;2022-07-12T07:50:14;10.83;;;7.03;;
73841;SDS011;62184;52.006;5.924;2022-07-12T07:52:41;9.83;;;7.40;;
73841;SDS011;62184;52.006;5.924;2022-07-12T07:55:08;8.07;;;6.67;;
73841;SDS011;62184;52.006;5.924;2022-07-12T07:57:37;8.07;;;6.30;;
73841;SDS011;62184;52.006;5.924;2022-07-12T08:00:04;7.97;;;6.33;;
73841;SDS011;62184;52.006;5.924;2022-07-12T08:02:32;9.23;;;7.27;;
73841;SDS011;62184;52.006;5.924;2022-07-12T08:05:00;8.57;;;7.20;;
73841;SDS011;62184;52.006;5.924;2022-07-12T08:07:27;9.67;;;6.57;;
73841;SDS011;62184;52.006;5.924;2022-07-12T08:09:53;8.77;;;7.63;;
73841;SDS011;62184;52.006;5.924;2022-07-12T08:12:19;9.27;;;7.68;;
73841;SDS011;62184;52.006;5.924;2022-07-12T08:14:48;8.73;;;7.50;;
73841;SDS011;62184;52.006;5.924;2022-07-12T08:17:15;8.73;;;7.10;;
73841;SDS011;62184;52.006;5.924;2022-07-12T08:19:41;9.87;;;7.33;;
73841;SDS011;62184;52.006;5.924;2022-07-12T08:22:08;10.70;;;7.70;;
73841;SDS011;62184;52.006;5.924;2022-07-12T08:24:34;10.27;;;8.70;;
73841;SDS011;62184;52.006;5.924;2022-07-12T08:27:00;8.97;;;7.63;;
73841;SDS011;62184;52.006;5.924;2022-07-12T08:29:27;8.65;;;7.75;;
73841;SDS011;62184;52.006;5.924;2022-07-12T08:31:56;11.17;;;7.30;;
73841;SDS011;62184;52.006;5.924;2022-07-12T08:34:22;11.20;;;7.73;;
73841;SDS011;62184;52.006;5.924;2022-07-12T08:36:49;8.20;;;6.60;;
73841;SDS011;62184;52.006;5.924;2022-07-12T08:39:15;9.50;;;6.67;;
73841;SDS011;62184;52.006;5.924;2022-07-12T08:41:42;7.85;;;5.85;;
73841;SDS011;62184;52.006;5.924;2022-07-12T08:44:08;10.90;;;6.83;;
73841;SDS011;62184;52.006;5.924;2022-07-12T08:46:34;8.00;;;7.00;;
73841;SDS011;62184;52.006;5.924;2022-07-12T08:49:07;8.48;;;6.45;;
73841;SDS011;62184;52.006;5.924;2022-07-12T08:51:34;8.03;;;5.97;;
73841;SDS011;62184;52.006;5.924;2022-07-12T08:54:04;7.43;;;6.03;;
73841;SDS011;62184;52.006;5.924;2022-07-12T08:56:33;8.33;;;6.30;;
73841;SDS011;62184;52.006;5.924;2022-07-12T08:59:14;7.70;;;6.57;;
73841;SDS011;62184;52.006;5.924;2022-07-12T09:01:43;8.13;;;7.15;;
73841;SDS011;62184;52.006;5.924;2022-07-12T09:04:15;10.53;;;7.70;;
73841;SDS011;62184;52.006;5.924;2022-07-12T09:06:44;8.47;;;6.13;;
73841;SDS011;62184;52.006;5.924;2022-07-12T09:09:13;9.13;;;7.22;;
73841;SDS011;62184;52.006;5.924;2022-07-12T09:11:52;9.20;;;7.60;;
73841;SDS011;62184;52.006;5.924;2022-07-12T09:14:19;8.13;;;7.00;;
73841;SDS011;62184;52.006;5.924;2022-07-12T09:16:57;8.35;;;6.80;;
73841;SDS011;62184;52.006;5.924;2022-07-12T09:19:28;9.07;;;6.50;;
73841;SDS011;62184;52.006;5.924;2022-07-12T09:21:55;7.97;;;6.10;;
73841;SDS011;62184;52.006;5.924;2022-07-12T09:24:23;7.28;;;5.50;;
73841;SDS011;62184;52.006;5.924;2022-07-12T09:26:52;7.80;;;6.20;;
73841;SDS011;62184;52.006;5.924;2022-07-12T09:29:23;8.63;;;6.43;;
73841;SDS011;62184;52.006;5.924;2022-07-12T09:31:50;8.93;;;6.07;;
73841;SDS011;62184;52.006;5.924;2022-07-12T09:34:18;8.43;;;6.45;;
73841;SDS011;62184;52.006;5.924;2022-07-12T09:36:56;7.93;;;6.83;;
73841;SDS011;62184;52.006;5.924;2022-07-12T09:39:24;6.80;;;5.20;;
73841;SDS011;62184;52.006;5.924;2022-07-12T09:41:51;7.20;;;5.15;;
73841;SDS011;62184;52.006;5.924;2022-07-12T09:44:20;7.10;;;4.97;;
73841;SDS011;62184;52.006;5.924;2022-07-12T09:46:47;6.43;;;5.47;;
73841;SDS011;62184;52.006;5.924;2022-07-12T09:49:16;7.20;;;5.13;;
73841;SDS011;62184;52.006;5.924;2022-07-12T09:51:44;10.47;;;6.87;;
73841;SDS011;62184;52.006;5.924;2022-07-12T09:54:17;8.07;;;4.88;;
73841;SDS011;62184;52.006;5.924;2022-07-12T09:56:52;8.03;;;4.47;;
73841;SDS011;62184;52.006;5.924;2022-07-12T09:59:23;5.65;;;3.80;;
73841;SDS011;62184;52.006;5.924;2022-07-12T10:01:54;6.40;;;4.63;;
73841;SDS011;62184;52.006;5.924;2022-07-12T10:04:24;7.80;;;5.07;;
73841;SDS011;62184;52.006;5.924;2022-07-12T10:06:56;6.05;;;4.10;;
73841;SDS011;62184;52.006;5.924;2022-07-12T10:09:25;5.80;;;4.13;;
73841;SDS011;62184;52.006;5.924;2022-07-12T10:11:54;7.45;;;4.70;;
73841;SDS011;62184;52.006;5.924;2022-07-12T10:14:22;5.55;;;3.70;;
73841;SDS011;62184;52.006;5.924;2022-07-12T10:16:50;10.40;;;3.67;;
73841;SDS011;62184;52.006;5.924;2022-07-12T10:19:26;5.30;;;3.43;;
73841;SDS011;62184;52.006;5.924;2022-07-12T10:21:55;5.77;;;4.47;;
73841;SDS011;62184;52.006;5.924;2022-07-12T10:27:32;6.10;;;4.07;;
73841;SDS011;62184;52.006;5.924;2022-07-12T10:30:15;6.27;;;4.10;;
73841;SDS011;62184;52.006;5.924;2022-07-12T10:32:48;5.65;;;3.13;;
73841;SDS011;62184;52.006;5.924;2022-07-12T10:35:17;6.53;;;4.28;;
73841;SDS011;62184;52.006;5.924;2022-07-12T10:40:51;6.35;;;4.00;;
73841;SDS011;62184;52.006;5.924;2022-07-12T10:43:19;6.00;;;4.17;;
73841;SDS011;62184;52.006;5.924;2022-07-12T10:45:55;6.73;;;3.93;;
73841;SDS011;62184;52.006;5.924;2022-07-12T10:48:39;5.40;;;3.72;;
73841;SDS011;62184;52.006;5.924;2022-07-12T10:51:12;5.13;;;3.37;;
73841;SDS011;62184;52.006;5.924;2022-07-12T10:53:41;4.50;;;3.13;;
73841;SDS011;62184;52.006;5.924;2022-07-12T10:56:17;5.25;;;3.53;;
73841;SDS011;62184;52.006;5.924;2022-07-12T10:58:46;5.77;;;4.00;;
73841;SDS011;62184;52.006;5.924;2022-07-12T11:01:15;5.20;;;4.03;;
73841;SDS011;62184;52.006;5.924;2022-07-12T11:03:45;6.32;;;4.03;;
73841;SDS011;62184;52.006;5.924;2022-07-12T11:06:14;5.63;;;3.40;;
73841;SDS011;62184;52.006;5.924;2022-07-12T11:08:50;6.10;;;3.13;;
73841;SDS011;62184;52.006;5.924;2022-07-12T11:11:25;5.10;;;2.77;;
73841;SDS011;62184;52.006;5.924;2022-07-12T11:13:54;6.63;;;3.43;;
73841;SDS011;62184;52.006;5.924;2022-07-12T11:16:22;4.45;;;3.17;;
73841;SDS011;62184;52.006;5.924;2022-07-12T11:18:50;6.37;;;2.80;;
73841;SDS011;62184;52.006;5.924;2022-07-12T11:21:19;5.70;;;3.10;;
73841;SDS011;62184;52.006;5.924;2022-07-12T11:23:46;5.82;;;4.05;;
73841;SDS011;62184;52.006;5.924;2022-07-12T11:26:13;5.50;;;2.87;;
73841;SDS011;62184;52.006;5.924;2022-07-12T11:28:43;7.33;;;4.30;;
73841;SDS011;62184;52.006;5.924;2022-07-12T11:31:13;6.38;;;4.80;;
73841;SDS011;62184;52.006;5.924;2022-07-12T11:33:42;6.10;;;4.77;;
73841;SDS011;62184;52.006;5.924;2022-07-12T11:36:11;6.47;;;4.32;;
73841;SDS011;62184;52.006;5.924;2022-07-12T11:38:39;6.00;;;4.40;;
73841;SDS011;62184;52.006;5.924;2022-07-12T11:41:09;6.27;;;4.50;;
73841;SDS011;62184;52.006;5.924;2022-07-12T11:43:37;6.27;;;4.47;;
73841;SDS011;62184;52.006;5.924;2022-07-12T11:46:07;6.47;;;5.10;;
73841;SDS011;62184;52.006;5.924;2022-07-12T11:48:35;6.83;;;5.00;;
73841;SDS011;62184;52.006;5.924;2022-07-12T11:51:03;11.30;;;6.07;;
73841;SDS011;62184;52.006;5.924;2022-07-12T11:53:33;7.15;;;5.30;;
73841;SDS011;62184;52.006;5.924;2022-07-12T11:56:02;8.33;;;5.57;;
73841;SDS011;62184;52.006;5.924;2022-07-12T11:58:32;8.50;;;5.60;;
73841;SDS011;62184;52.006;5.924;2022-07-12T12:01:00;9.63;;;6.03;;
73841;SDS011;62184;52.006;5.924;2022-07-12T12:03:29;6.53;;;5.23;;
73841;SDS011;62184;52.006;5.924;2022-07-12T12:05:56;7.70;;;5.03;;
73841;SDS011;62184;52.006;5.924;2022-07-12T12:08:23;7.63;;;5.20;;
73841;SDS011;62184;52.006;5.924;2022-07-12T12:10:54;7.30;;;4.83;;
73841;SDS011;62184;52.006;5.924;2022-07-12T12:13:22;7.60;;;5.13;;
73841;SDS011;62184;52.006;5.924;2022-07-12T12:15:50;7.25;;;5.38;;
73841;SDS011;62184;52.006;5.924;2022-07-12T12:18:34;7.07;;;5.17;;
73841;SDS011;62184;52.006;5.924;2022-07-12T12:21:04;7.25;;;5.60;;
73841;SDS011;62184;52.006;5.924;2022-07-12T12:23:32;7.37;;;5.20;;
73841;SDS011;62184;52.006;5.924;2022-07-12T12:26:10;6.80;;;5.17;;
73841;SDS011;62184;52.006;5.924;2022-07-12T12:28:42;8.40;;;6.07;;
73841;SDS011;62184;52.006;5.924;2022-07-12T12:31:15;7.37;;;4.63;;
73841;SDS011;62184;52.006;5.924;2022-07-12T12:33:46;6.65;;;5.10;;
73841;SDS011;62184;52.006;5.924;2022-07-12T12:36:15;7.23;;;5.80;;
73841;SDS011;62184;52.006;5.924;2022-07-12T12:38:47;6.05;;;5.22;;
73841;SDS011;62184;52.006;5.924;2022-07-12T12:41:15;6.53;;;3.67;;
73841;SDS011;62184;52.006;5.924;2022-07-12T12:43:43;6.10;;;4.77;;
73841;SDS011;62184;52.006;5.924;2022-07-12T12:46:10;5.90;;;3.80;;
73841;SDS011;62184;52.006;5.924;2022-07-12T12:48:37;7.45;;;5.40;;
73841;SDS011;62184;52.006;5.924;2022-07-12T12:51:14;7.40;;;4.97;;
73841;SDS011;62184;52.006;5.924;2022-07-12T12:53:41;7.72;;;5.72;;
73841;SDS011;62184;52.006;5.924;2022-07-12T12:56:09;7.10;;;5.60;;
73841;SDS011;62184;52.006;5.924;2022-07-12T12:58:38;7.68;;;5.63;;
73841;SDS011;62184;52.006;5.924;2022-07-12T13:01:07;7.53;;;5.38;;
73841;SDS011;62184;52.006;5.924;2022-07-12T13:03:35;8.43;;;6.17;;
73841;SDS011;62184;52.006;5.924;2022-07-12T13:06:04;7.85;;;5.50;;
73841;SDS011;62184;52.006;5.924;2022-07-12T13:08:31;7.45;;;5.07;;
73841;SDS011;62184;52.006;5.924;2022-07-12T13:10:57;6.93;;;4.80;;
73841;SDS011;62184;52.006;5.924;2022-07-12T13:13:24;6.05;;;4.05;;
73841;SDS011;62184;52.006;5.924;2022-07-12T13:15:51;6.27;;;4.30;;
73841;SDS011;62184;52.006;5.924;2022-07-12T13:18:17;5.83;;;4.40;;
73841;SDS011;62184;52.006;5.924;2022-07-12T13:20:43;5.60;;;4.30;;
73841;SDS011;62184;52.006;5.924;2022-07-12T13:23:12;6.60;;;4.53;;
73841;SDS011;62184;52.006;5.924;2022-07-12T13:25:39;5.32;;;3.55;;
73841;SDS011;62184;52.006;5.924;2022-07-12T13:28:05;5.47;;;3.90;;
73841;SDS011;62184;52.006;5.924;2022-07-12T13:30:32;6.13;;;3.27;;
73841;SDS011;62184;52.006;5.924;2022-07-12T13:32:58;6.07;;;3.38;;
73841;SDS011;62184;52.006;5.924;2022-07-12T13:35:25;4.97;;;3.60;;
73841;SDS011;62184;52.006;5.924;2022-07-12T13:37:51;4.50;;;3.20;;
73841;SDS011;62184;52.006;5.924;2022-07-12T13:40:20;5.13;;;3.30;;
73841;SDS011;62184;52.006;5.924;2022-07-12T13:42:47;5.47;;;3.30;;
73841;SDS011;62184;52.006;5.924;2022-07-12T13:45:16;6.30;;;3.88;;
73841;SDS011;62184;52.006;5.924;2022-07-12T13:47:45;9.17;;;5.77;;
73841;SDS011;62184;52.006;5.924;2022-07-12T13:50:14;7.27;;;4.50;;
73841;SDS011;62184;52.006;5.924;2022-07-12T13:52:41;6.53;;;4.60;;
73841;SDS011;62184;52.006;5.924;2022-07-12T13:55:10;5.90;;;3.90;;
73841;SDS011;62184;52.006;5.924;2022-07-12T13:57:41;5.90;;;3.63;;
73841;SDS011;62184;52.006;5.924;2022-07-12T14:00:09;7.60;;;4.10;;
73841;SDS011;62184;52.006;5.924;2022-07-12T14:02:40;6.85;;;4.53;;
73841;SDS011;62184;52.006;5.924;2022-07-12T14:05:09;6.00;;;3.88;;
73841;SDS011;62184;52.006;5.924;2022-07-12T14:07:38;4.82;;;3.78;;
73841;SDS011;62184;52.006;5.924;2022-07-12T14:10:07;6.23;;;4.37;;
73841;SDS011;62184;52.006;5.924;2022-07-12T14:12:35;5.40;;;4.13;;
73841;SDS011;62184;52.006;5.924;2022-07-12T14:15:05;6.40;;;4.28;;
73841;SDS011;62184;52.006;5.924;2022-07-12T14:17:33;5.77;;;4.50;;
73841;SDS011;62184;52.006;5.924;2022-07-12T14:20:00;6.72;;;4.00;;
73841;SDS011;62184;52.006;5.924;2022-07-12T14:22:27;4.95;;;3.83;;
73841;SDS011;62184;52.006;5.924;2022-07-12T14:24:53;6.23;;;3.47;;
73841;SDS011;62184;52.006;5.924;2022-07-12T14:27:20;5.47;;;3.63;;
73841;SDS011;62184;52.006;5.924;2022-07-12T14:29:47;5.93;;;3.33;;
73841;SDS011;62184;52.006;5.924;2022-07-12T14:32:16;7.07;;;4.67;;
73841;SDS011;62184;52.006;5.924;2022-07-12T14:34:43;6.53;;;4.10;;
73841;SDS011;62184;52.006;5.924;2022-07-12T14:37:09;6.10;;;3.80;;
73841;SDS011;62184;52.006;5.924;2022-07-12T14:39:36;6.67;;;4.20;;
73841;SDS011;62184;52.006;5.924;2022-07-12T14:42:02;5.43;;;3.90;;
73841;SDS011;62184;52.006;5.924;2022-07-12T14:44:29;5.27;;;3.03;;
73841;SDS011;62184;52.006;5.924;2022-07-12T14:46:56;5.73;;;3.27;;
73841;SDS011;62184;52.006;5.924;2022-07-12T14:49:25;5.50;;;2.90;;
73841;SDS011;62184;52.006;5.924;2022-07-12T14:51:51;6.97;;;3.50;;